SRR6119 LGAV-EDDM
Flight info
| Callsign | SRR6119 |
|---|---|
| Flight time | 2h 10m |
| Altitude | 36000 |
| Route | KOR UL613 XANIS DCT DIMIS DCT PETAK DCT GLOMY DCT ELTIB DCT GORPA DCT BERTA DCT RASTA DCT REDBU Q112 NAPSA |
| Aircraft | B763/H-SDE3FGHIM3RWXY/LB1 |
Departure
| Time | 2026-05-04 15:13 |
|---|---|
| Airport | Athens Eleftherios Venizelos International Airport (LGAV) |
Arrival
| Time | 2026-05-04 17:24 |
|---|---|
| Airport | Munich Airport (EDDM) |
| Time | Latitude | Longitude | Altitude | Speed | Heading |
|---|---|---|---|---|---|
| 2026-05-04 14:27 | 37.92625 | 23.94026 | 320 ft | 0 kts | 217° |
| 2026-05-04 15:04 | 37.92634 | 23.94035 | 320 ft | 1 kts | 217° |
| 2026-05-04 15:04 | 37.92643 | 23.94043 | 319 ft | 2 kts | 211° |
| 2026-05-04 15:05 | 37.92656 | 23.94050 | 319 ft | 2 kts | 192° |
| 2026-05-04 15:05 | 37.92671 | 23.94053 | 319 ft | 2 kts | 179° |
| 2026-05-04 15:05 | 37.92686 | 23.94050 | 319 ft | 2 kts | 164° |
| 2026-05-04 15:05 | 37.92699 | 23.94043 | 319 ft | 2 kts | 149° |
| 2026-05-04 15:06 | 37.92711 | 23.94032 | 320 ft | 2 kts | 135° |
| 2026-05-04 15:06 | 37.92716 | 23.94025 | 319 ft | 1 kts | 127° |
| 2026-05-04 15:06 | 37.92717 | 23.94023 | 319 ft | 0 kts | 127° |
| 2026-05-04 15:10 | 37.92670 | 23.94099 | 319 ft | 13 kts | 127° |
| 2026-05-04 15:11 | 37.92615 | 23.94192 | 319 ft | 13 kts | 127° |
| 2026-05-04 15:11 | 37.92561 | 23.94285 | 319 ft | 13 kts | 126° |
| 2026-05-04 15:11 | 37.92504 | 23.94382 | 319 ft | 13 kts | 126° |
| 2026-05-04 15:11 | 37.92509 | 23.94471 | 319 ft | 10 kts | 36° |
| 2026-05-04 15:12 | 37.92528 | 23.94490 | 319 ft | 2 kts | 37° |
| 2026-05-04 15:12 | 37.92679 | 23.94635 | 319 ft | 57 kts | 37° |
| 2026-05-04 15:12 | 37.93155 | 23.95089 | 319 ft | 112 kts | 37° |
| 2026-05-04 15:12 | 37.93932 | 23.95825 | 321 ft | 161 kts | 38° |
| 2026-05-04 15:13 | 37.94895 | 23.96757 | 612 ft | 185 kts | 39° |
| 2026-05-04 15:13 | 37.95983 | 23.97805 | 966 ft | 213 kts | 37° |
| 2026-05-04 15:13 | 37.97279 | 23.99047 | 1224 ft | 251 kts | 37° |
| 2026-05-04 15:13 | 37.98645 | 24.00358 | 2335 ft | 246 kts | 36° |
| 2026-05-04 15:14 | 37.99976 | 24.01637 | 3435 ft | 241 kts | 35° |
| 2026-05-04 15:14 | 38.01374 | 24.02768 | 4263 ft | 243 kts | 16° |
| 2026-05-04 15:14 | 38.03029 | 24.03020 | 5153 ft | 242 kts | 355° |
| 2026-05-04 15:14 | 38.04690 | 24.02883 | 6064 ft | 243 kts | 354° |
| 2026-05-04 15:15 | 38.06375 | 24.02745 | 6961 ft | 245 kts | 354° |
| 2026-05-04 15:15 | 38.08053 | 24.02605 | 7881 ft | 245 kts | 354° |
| 2026-05-04 15:15 | 38.09764 | 24.02309 | 8483 ft | 257 kts | 340° |
| 2026-05-04 15:16 | 38.12085 | 23.98929 | 10079 ft | 278 kts | 286° |
| 2026-05-04 15:16 | 38.12231 | 23.96412 | 10641 ft | 298 kts | 273° |
| 2026-05-04 15:16 | 38.12236 | 23.90836 | 11654 ft | 334 kts | 274° |
| 2026-05-04 15:17 | 38.12244 | 23.87794 | 12112 ft | 354 kts | 274° |
| 2026-05-04 15:17 | 38.12254 | 23.81280 | 13252 ft | 387 kts | 274° |
| 2026-05-04 15:17 | 38.12255 | 23.77842 | 14178 ft | 393 kts | 274° |
| 2026-05-04 15:18 | 38.12257 | 23.74307 | 15138 ft | 397 kts | 273° |
| 2026-05-04 15:18 | 38.12258 | 23.70779 | 15973 ft | 404 kts | 273° |
| 2026-05-04 15:18 | 38.12259 | 23.67203 | 16794 ft | 410 kts | 273° |
| 2026-05-04 15:19 | 38.12255 | 23.59907 | 18436 ft | 419 kts | 272° |
| 2026-05-04 15:19 | 38.12250 | 23.56248 | 19185 ft | 425 kts | 272° |
| 2026-05-04 15:19 | 38.12237 | 23.48733 | 20851 ft | 430 kts | 274° |
| 2026-05-04 15:20 | 38.12231 | 23.44912 | 21602 ft | 434 kts | 274° |
| 2026-05-04 15:20 | 38.12225 | 23.41060 | 22229 ft | 441 kts | 274° |
| 2026-05-04 15:20 | 38.12213 | 23.37183 | 23175 ft | 439 kts | 275° |
| 2026-05-04 15:20 | 38.12203 | 23.33317 | 23796 ft | 445 kts | 274° |
| 2026-05-04 15:21 | 38.12190 | 23.29377 | 24644 ft | 445 kts | 275° |
| 2026-05-04 15:21 | 38.12176 | 23.25481 | 25402 ft | 446 kts | 275° |
| 2026-05-04 15:21 | 38.12144 | 23.17618 | 26885 ft | 446 kts | 276° |
| 2026-05-04 15:22 | 38.12126 | 23.13690 | 27641 ft | 446 kts | 276° |
| 2026-05-04 15:22 | 38.12112 | 23.09720 | 27905 ft | 457 kts | 276° |
| 2026-05-04 15:22 | 38.12068 | 23.01750 | 29195 ft | 458 kts | 276° |
| 2026-05-04 15:23 | 38.12043 | 22.97715 | 29792 ft | 457 kts | 277° |
| 2026-05-04 15:23 | 38.12019 | 22.93727 | 30141 ft | 463 kts | 277° |
| 2026-05-04 15:23 | 38.11963 | 22.85616 | 30096 ft | 452 kts | 277° |
| 2026-05-04 15:24 | 38.12223 | 22.77874 | 30093 ft | 427 kts | 288° |
| 2026-05-04 15:24 | 38.14243 | 22.71096 | 30101 ft | 400 kts | 307° |
| 2026-05-04 15:25 | 38.17706 | 22.65766 | 30125 ft | 398 kts | 317° |
| 2026-05-04 15:25 | 38.19659 | 22.63227 | 30149 ft | 411 kts | 318° |
| 2026-05-04 15:26 | 38.23816 | 22.58082 | 30921 ft | 419 kts | 319° |
| 2026-05-04 15:26 | 38.25900 | 22.55569 | 31579 ft | 417 kts | 319° |
| 2026-05-04 15:26 | 38.30126 | 22.50533 | 32642 ft | 416 kts | 319° |
| 2026-05-04 15:27 | 38.32246 | 22.48025 | 33178 ft | 415 kts | 319° |
| 2026-05-04 15:27 | 38.36457 | 22.43064 | 34129 ft | 413 kts | 320° |
| 2026-05-04 15:28 | 38.42768 | 22.35642 | 34118 ft | 410 kts | 320° |
| 2026-05-04 15:29 | 38.49065 | 22.28232 | 34112 ft | 411 kts | 320° |
| 2026-05-04 15:30 | 38.64090 | 22.11512 | 34122 ft | 410 kts | 323° |
| 2026-05-04 15:31 | 38.70708 | 22.04669 | 34116 ft | 409 kts | 322° |
| 2026-05-04 15:32 | 38.81799 | 21.93157 | 34122 ft | 410 kts | 323° |
| 2026-05-04 15:34 | 38.92833 | 21.81657 | 34800 ft | 414 kts | 323° |
| 2026-05-04 15:34 | 38.95074 | 21.79316 | 35083 ft | 415 kts | 323° |
| 2026-05-04 15:34 | 38.99530 | 21.74654 | 35739 ft | 415 kts | 322° |
| 2026-05-04 15:35 | 39.04030 | 21.69938 | 36102 ft | 414 kts | 323° |
| 2026-05-04 15:35 | 39.06242 | 21.67617 | 36113 ft | 414 kts | 322° |
| 2026-05-04 15:36 | 39.12937 | 21.60578 | 36130 ft | 415 kts | 322° |
| 2026-05-04 15:36 | 39.17396 | 21.55881 | 36119 ft | 413 kts | 322° |
| 2026-05-04 15:37 | 39.21838 | 21.51194 | 36118 ft | 415 kts | 322° |
| 2026-05-04 15:37 | 39.26293 | 21.46486 | 36124 ft | 417 kts | 323° |
| 2026-05-04 15:38 | 39.30771 | 21.41745 | 36124 ft | 415 kts | 322° |
| 2026-05-04 15:38 | 39.35234 | 21.37011 | 36125 ft | 416 kts | 322° |
| 2026-05-04 15:39 | 39.39704 | 21.32262 | 36134 ft | 417 kts | 322° |
| 2026-05-04 15:40 | 39.46409 | 21.25125 | 36132 ft | 418 kts | 322° |
| 2026-05-04 15:40 | 39.50888 | 21.20346 | 36131 ft | 418 kts | 322° |
| 2026-05-04 15:41 | 39.55365 | 21.15560 | 36147 ft | 419 kts | 322° |
| 2026-05-04 15:41 | 39.59842 | 21.10767 | 36145 ft | 418 kts | 322° |
| 2026-05-04 15:42 | 39.64311 | 21.05975 | 36143 ft | 419 kts | 322° |
| 2026-05-04 15:42 | 39.68784 | 21.01169 | 36140 ft | 419 kts | 322° |
| 2026-05-04 15:43 | 39.73278 | 20.96334 | 36143 ft | 420 kts | 322° |
| 2026-05-04 15:43 | 39.77763 | 20.91498 | 36145 ft | 422 kts | 322° |
| 2026-05-04 15:44 | 39.82273 | 20.86628 | 36147 ft | 420 kts | 322° |
| 2026-05-04 15:44 | 39.86752 | 20.81781 | 36157 ft | 421 kts | 322° |
| 2026-05-04 15:45 | 39.91236 | 20.76922 | 36152 ft | 422 kts | 322° |
| 2026-05-04 15:45 | 39.95750 | 20.72021 | 36156 ft | 422 kts | 322° |
| 2026-05-04 15:46 | 40.00264 | 20.67111 | 36152 ft | 421 kts | 322° |
| 2026-05-04 15:46 | 40.04737 | 20.62237 | 36152 ft | 420 kts | 322° |
| 2026-05-04 15:47 | 40.09525 | 20.57871 | 36153 ft | 418 kts | 332° |
| 2026-05-04 15:47 | 40.14564 | 20.54166 | 36152 ft | 420 kts | 331° |
| 2026-05-04 15:48 | 40.19620 | 20.50449 | 36149 ft | 421 kts | 331° |
| 2026-05-04 15:48 | 40.27251 | 20.44838 | 36146 ft | 418 kts | 331° |
| 2026-05-04 15:49 | 40.32333 | 20.41099 | 36146 ft | 420 kts | 331° |
| 2026-05-04 15:49 | 40.37407 | 20.37356 | 36145 ft | 419 kts | 331° |
| 2026-05-04 15:50 | 40.42511 | 20.33588 | 36147 ft | 421 kts | 330° |
| 2026-05-04 15:50 | 40.47610 | 20.29816 | 36145 ft | 421 kts | 331° |
| 2026-05-04 15:51 | 40.52671 | 20.26067 | 36140 ft | 420 kts | 331° |
| 2026-05-04 15:51 | 40.57755 | 20.22294 | 36133 ft | 420 kts | 330° |
| 2026-05-04 15:52 | 40.62859 | 20.18498 | 36132 ft | 420 kts | 330° |
| 2026-05-04 15:52 | 40.67938 | 20.14714 | 36132 ft | 421 kts | 330° |
| 2026-05-04 15:53 | 40.73019 | 20.10923 | 36133 ft | 421 kts | 330° |
| 2026-05-04 15:53 | 40.78109 | 20.07118 | 36129 ft | 421 kts | 331° |
| 2026-05-04 15:54 | 40.83199 | 20.03306 | 36125 ft | 421 kts | 330° |
| 2026-05-04 15:54 | 40.88309 | 19.99472 | 36120 ft | 423 kts | 331° |
| 2026-05-04 15:55 | 40.93404 | 19.95644 | 36113 ft | 422 kts | 330° |
| 2026-05-04 15:55 | 40.98461 | 19.91836 | 36111 ft | 421 kts | 330° |
| 2026-05-04 15:56 | 41.03583 | 19.87973 | 36111 ft | 423 kts | 330° |
| 2026-05-04 15:56 | 41.08683 | 19.84119 | 36111 ft | 423 kts | 331° |
| 2026-05-04 15:57 | 41.13745 | 19.80288 | 36126 ft | 424 kts | 330° |
| 2026-05-04 15:57 | 41.18859 | 19.76410 | 36129 ft | 425 kts | 330° |
| 2026-05-04 15:58 | 41.23988 | 19.72513 | 36125 ft | 424 kts | 330° |
| 2026-05-04 15:58 | 41.29105 | 19.68618 | 36127 ft | 425 kts | 330° |
| 2026-05-04 15:59 | 41.34239 | 19.64703 | 36124 ft | 425 kts | 330° |
| 2026-05-04 15:59 | 41.39368 | 19.60786 | 36118 ft | 425 kts | 330° |
| 2026-05-04 16:00 | 41.44505 | 19.56854 | 36116 ft | 426 kts | 330° |
| 2026-05-04 16:00 | 41.49616 | 19.52936 | 36109 ft | 426 kts | 330° |
| 2026-05-04 16:01 | 41.54756 | 19.48988 | 36107 ft | 426 kts | 330° |
| 2026-05-04 16:01 | 41.59886 | 19.45040 | 36104 ft | 427 kts | 330° |
| 2026-05-04 16:02 | 41.65038 | 19.41067 | 36107 ft | 427 kts | 330° |
| 2026-05-04 16:03 | 41.72751 | 19.35106 | 36105 ft | 428 kts | 330° |
| 2026-05-04 16:03 | 41.77874 | 19.31113 | 36104 ft | 427 kts | 328° |
| 2026-05-04 16:04 | 41.82833 | 19.26680 | 36111 ft | 427 kts | 327° |
| 2026-05-04 16:04 | 41.90238 | 19.20038 | 36107 ft | 428 kts | 326° |
| 2026-05-04 16:05 | 41.95148 | 19.15626 | 36109 ft | 427 kts | 327° |
| 2026-05-04 16:06 | 42.02551 | 19.08963 | 36107 ft | 427 kts | 326° |
| 2026-05-04 16:07 | 42.12446 | 19.00026 | 36114 ft | 428 kts | 326° |
| 2026-05-04 16:08 | 42.22333 | 18.91062 | 36116 ft | 429 kts | 326° |
| 2026-05-04 16:09 | 42.34733 | 18.79772 | 36119 ft | 432 kts | 326° |
| 2026-05-04 16:10 | 42.44683 | 18.70673 | 36118 ft | 433 kts | 326° |
| 2026-05-04 16:11 | 42.54641 | 18.61532 | 36120 ft | 432 kts | 326° |
| 2026-05-04 16:12 | 42.69565 | 18.47763 | 36121 ft | 434 kts | 326° |
| 2026-05-04 16:13 | 42.79550 | 18.38505 | 36123 ft | 435 kts | 326° |
| 2026-05-04 16:14 | 42.89497 | 18.29247 | 36126 ft | 436 kts | 325° |
| 2026-05-04 16:16 | 43.01944 | 18.17609 | 36119 ft | 436 kts | 325° |
| 2026-05-04 16:17 | 43.14450 | 18.05857 | 36133 ft | 437 kts | 325° |
| 2026-05-04 16:18 | 43.24455 | 17.96413 | 36134 ft | 438 kts | 325° |
| 2026-05-04 16:19 | 43.36937 | 17.84576 | 36133 ft | 438 kts | 325° |
| 2026-05-04 16:20 | 43.49448 | 17.72650 | 36111 ft | 439 kts | 325° |
| 2026-05-04 16:22 | 43.61697 | 17.59971 | 36127 ft | 441 kts | 321° |
| 2026-05-04 16:23 | 43.75948 | 17.43931 | 36140 ft | 442 kts | 321° |
| 2026-05-04 16:25 | 43.90216 | 17.27751 | 36136 ft | 445 kts | 320° |
| 2026-05-04 16:26 | 44.06850 | 17.08756 | 36148 ft | 445 kts | 320° |
| 2026-05-04 16:28 | 44.18778 | 16.95046 | 36141 ft | 445 kts | 320° |
| 2026-05-04 16:29 | 44.35779 | 16.76402 | 36124 ft | 447 kts | 325° |
| 2026-05-04 16:31 | 44.48542 | 16.64053 | 36118 ft | 447 kts | 324° |
| 2026-05-04 16:32 | 44.63880 | 16.49099 | 36098 ft | 449 kts | 324° |
| 2026-05-04 16:33 | 44.74139 | 16.39042 | 36096 ft | 450 kts | 324° |
| 2026-05-04 16:34 | 44.81753 | 16.31546 | 36095 ft | 451 kts | 324° |
| 2026-05-04 16:35 | 44.97109 | 16.16357 | 36068 ft | 452 kts | 324° |
| 2026-05-04 16:36 | 45.04841 | 16.08671 | 36059 ft | 453 kts | 324° |
| 2026-05-04 16:37 | 45.12477 | 16.01055 | 36067 ft | 453 kts | 324° |
| 2026-05-04 16:38 | 45.22657 | 15.90862 | 36056 ft | 454 kts | 323° |
| 2026-05-04 16:39 | 45.35392 | 15.78044 | 36046 ft | 455 kts | 323° |
| 2026-05-04 16:40 | 45.45701 | 15.67616 | 36039 ft | 455 kts | 323° |
| 2026-05-04 16:41 | 45.58602 | 15.54498 | 36041 ft | 457 kts | 323° |
| 2026-05-04 16:43 | 45.71481 | 15.41327 | 36053 ft | 457 kts | 323° |
| 2026-05-04 16:43 | 45.79167 | 15.33379 | 36054 ft | 458 kts | 322° |
| 2026-05-04 16:45 | 45.94501 | 15.17061 | 36045 ft | 459 kts | 322° |
| 2026-05-04 16:46 | 46.07271 | 15.03388 | 36040 ft | 459 kts | 322° |
| 2026-05-04 16:47 | 46.17353 | 14.92535 | 36038 ft | 459 kts | 322° |
| 2026-05-04 16:48 | 46.27425 | 14.81643 | 36059 ft | 460 kts | 322° |
| 2026-05-04 16:49 | 46.37653 | 14.70529 | 36081 ft | 461 kts | 322° |
| 2026-05-04 16:50 | 46.47809 | 14.59260 | 36100 ft | 461 kts | 320° |
| 2026-05-04 16:51 | 46.55216 | 14.50642 | 36092 ft | 462 kts | 320° |
| 2026-05-04 16:52 | 46.65221 | 14.38957 | 36066 ft | 462 kts | 320° |
| 2026-05-04 16:53 | 46.72392 | 14.30548 | 36053 ft | 462 kts | 319° |
| 2026-05-04 16:54 | 46.82358 | 14.18812 | 36059 ft | 458 kts | 319° |
| 2026-05-04 16:55 | 46.96898 | 14.01587 | 36098 ft | 452 kts | 319° |
| 2026-05-04 16:56 | 47.09081 | 13.87056 | 36102 ft | 454 kts | 319° |
| 2026-05-04 16:57 | 47.16342 | 13.78352 | 36098 ft | 454 kts | 319° |
| 2026-05-04 16:58 | 47.26164 | 13.66530 | 36095 ft | 465 kts | 319° |
| 2026-05-04 17:00 | 47.41196 | 13.48327 | 36066 ft | 467 kts | 319° |
| 2026-05-04 17:01 | 47.53598 | 13.33251 | 36070 ft | 467 kts | 318° |
| 2026-05-04 17:01 | 47.58538 | 13.27261 | 35848 ft | 468 kts | 319° |
| 2026-05-04 17:02 | 47.63450 | 13.21294 | 35486 ft | 444 kts | 318° |
| 2026-05-04 17:02 | 47.68206 | 13.15492 | 33022 ft | 452 kts | 319° |
| 2026-05-04 17:03 | 47.70645 | 13.12513 | 32401 ft | 450 kts | 319° |
| 2026-05-04 17:03 | 47.73064 | 13.09555 | 31751 ft | 453 kts | 319° |
| 2026-05-04 17:03 | 47.77961 | 13.03558 | 30538 ft | 462 kts | 319° |
| 2026-05-04 17:04 | 47.82902 | 12.97493 | 29391 ft | 465 kts | 319° |
| 2026-05-04 17:04 | 47.87854 | 12.91400 | 28339 ft | 456 kts | 319° |
| 2026-05-04 17:05 | 47.92679 | 12.85446 | 27296 ft | 448 kts | 318° |
| 2026-05-04 17:05 | 47.96747 | 12.78609 | 26269 ft | 441 kts | 301° |
| 2026-05-04 17:06 | 47.99902 | 12.70898 | 25204 ft | 434 kts | 300° |
| 2026-05-04 17:06 | 48.01449 | 12.67056 | 24689 ft | 428 kts | 300° |
| 2026-05-04 17:07 | 48.04462 | 12.59506 | 23727 ft | 422 kts | 299° |
| 2026-05-04 17:07 | 48.04948 | 12.58284 | 23574 ft | 421 kts | 299° |
| 2026-05-04 17:07 | 48.07439 | 12.52048 | 22771 ft | 418 kts | 300° |
| 2026-05-04 17:07 | 48.08928 | 12.48331 | 22265 ft | 413 kts | 300° |
| 2026-05-04 17:08 | 48.10331 | 12.44826 | 21804 ft | 411 kts | 299° |
| 2026-05-04 17:08 | 48.13394 | 12.37714 | 20857 ft | 407 kts | 309° |
| 2026-05-04 17:08 | 48.15321 | 12.34847 | 20420 ft | 407 kts | 318° |
| 2026-05-04 17:09 | 48.17650 | 12.32457 | 19916 ft | 407 kts | 329° |
| 2026-05-04 17:09 | 48.20163 | 12.30518 | 19418 ft | 405 kts | 328° |
| 2026-05-04 17:09 | 48.22444 | 12.28172 | 18932 ft | 398 kts | 317° |
| 2026-05-04 17:10 | 48.25811 | 12.21811 | 17964 ft | 387 kts | 292° |
| 2026-05-04 17:10 | 48.27401 | 12.10383 | 16596 ft | 381 kts | 269° |
| 2026-05-04 17:11 | 48.27357 | 12.06356 | 16123 ft | 385 kts | 266° |
| 2026-05-04 17:11 | 48.27211 | 12.02399 | 15607 ft | 380 kts | 264° |
| 2026-05-04 17:11 | 48.26783 | 11.94730 | 14586 ft | 360 kts | 262° |
| 2026-05-04 17:12 | 48.26532 | 11.91020 | 14192 ft | 361 kts | 262° |
| 2026-05-04 17:12 | 48.25988 | 11.83518 | 13364 ft | 361 kts | 262° |
| 2026-05-04 17:13 | 48.25141 | 11.72396 | 12222 ft | 363 kts | 261° |
| 2026-05-04 17:14 | 48.24278 | 11.61308 | 10447 ft | 354 kts | 261° |
| 2026-05-04 17:14 | 48.23997 | 11.57727 | 9798 ft | 342 kts | 262° |
| 2026-05-04 17:14 | 48.23455 | 11.50886 | 8543 ft | 323 kts | 262° |
| 2026-05-04 17:15 | 48.23190 | 11.47567 | 7983 ft | 313 kts | 262° |
| 2026-05-04 17:15 | 48.22686 | 11.41276 | 6917 ft | 301 kts | 263° |
| 2026-05-04 17:16 | 48.22190 | 11.35126 | 5687 ft | 297 kts | 263° |
| 2026-05-04 17:16 | 48.24380 | 11.27697 | 4961 ft | 269 kts | 337° |
| 2026-05-04 17:17 | 48.26139 | 11.27153 | 4974 ft | 259 kts | 6° |
| 2026-05-04 17:17 | 48.30094 | 11.31942 | 4937 ft | 258 kts | 55° |
| 2026-05-04 17:18 | 48.30753 | 11.34382 | 4949 ft | 254 kts | 81° |
| 2026-05-04 17:18 | 48.31232 | 11.39666 | 4929 ft | 251 kts | 81° |
| 2026-05-04 17:19 | 48.31659 | 11.44577 | 4932 ft | 228 kts | 82° |
| 2026-05-04 17:19 | 48.32024 | 11.48991 | 4873 ft | 194 kts | 82° |
| 2026-05-04 17:20 | 48.32339 | 11.52905 | 4362 ft | 190 kts | 81° |
| 2026-05-04 17:20 | 48.32656 | 11.56871 | 3863 ft | 190 kts | 81° |
| 2026-05-04 17:20 | 48.32810 | 11.58839 | 3611 ft | 189 kts | 80° |
| 2026-05-04 17:21 | 48.33113 | 11.62726 | 3107 ft | 188 kts | 80° |
| 2026-05-04 17:21 | 48.33384 | 11.66328 | 2596 ft | 156 kts | 82° |
| 2026-05-04 17:22 | 48.33498 | 11.67876 | 2417 ft | 144 kts | 81° |
| 2026-05-04 17:22 | 48.33614 | 11.69367 | 2246 ft | 147 kts | 81° |
| 2026-05-04 17:23 | 48.33983 | 11.74036 | 1677 ft | 150 kts | 82° |
| 2026-05-04 17:23 | 48.34103 | 11.75587 | 1515 ft | 150 kts | 82° |
| 2026-05-04 17:23 | 48.34285 | 11.77926 | 1488 ft | 59 kts | 83° |
| 2026-05-04 17:24 | 48.34359 | 11.78316 | 1486 ft | 29 kts | 55° |
| 2026-05-04 17:24 | 48.34536 | 11.78674 | 1485 ft | 6 kts | 53° |
| 2026-05-04 17:25 | 48.34572 | 11.78713 | 1485 ft | 7 kts | 355° |
| 2026-05-04 17:25 | 48.34599 | 11.78489 | 1486 ft | 13 kts | 264° |
| 2026-05-04 17:26 | 48.34576 | 11.78186 | 1487 ft | 15 kts | 263° |
| 2026-05-04 17:26 | 48.34542 | 11.77738 | 1487 ft | 11 kts | 264° |
| 2026-05-04 17:27 | 48.34526 | 11.77526 | 1488 ft | 8 kts | 263° |
| 2026-05-04 17:27 | 48.34598 | 11.77426 | 1488 ft | 11 kts | 353° |
| 2026-05-04 17:28 | 48.34715 | 11.77406 | 1488 ft | 0 kts | 354° |
| 2026-05-04 17:29 | 48.34793 | 11.77351 | 1488 ft | 7 kts | 292° |
| 2026-05-04 17:30 | 48.34775 | 11.77051 | 1489 ft | 11 kts | 263° |
| 2026-05-04 17:31 | 48.34845 | 11.76956 | 1489 ft | 0 kts | 354° |
| 2026-05-04 17:31 | 48.34859 | 11.76954 | 1488 ft | 0 kts | 353° |